createdAt,value
2018-06-29T00:01:14.443Z,101615.03
2018-06-29T00:03:42.614Z,101620.73
2018-06-29T00:06:10.820Z,101617.76
2018-06-29T00:08:39.062Z,101616.08
2018-06-29T00:11:07.392Z,101618.59
2018-06-29T00:13:35.663Z,101616.44
2018-06-29T00:16:04.032Z,101616.91
2018-06-29T00:18:32.214Z,101615.03
2018-06-29T00:21:00.376Z,101615.56
2018-06-29T00:23:28.597Z,101608.45
2018-06-29T00:25:56.876Z,101609.49
2018-06-29T00:28:25.140Z,101607.30
2018-06-29T00:30:53.494Z,101611.09
2018-06-29T00:33:21.791Z,101617.94
2018-06-29T00:35:50.006Z,101618.47
2018-06-29T00:38:18.269Z,101621.70
2018-06-29T00:40:46.982Z,101611.66
2018-06-29T00:43:15.164Z,101613.48
2018-06-29T00:45:43.443Z,101614.04
2018-06-29T00:48:11.640Z,101611.05
2018-06-29T00:50:39.827Z,101609.83
2018-06-29T00:53:08.045Z,101616.76
2018-06-29T00:55:36.218Z,101614.42
2018-06-29T00:58:04.485Z,101611.41
2018-06-29T01:00:32.749Z,101606.56
2018-06-29T01:03:01.015Z,101610.38
2018-06-29T01:05:29.334Z,101614.13
2018-06-29T01:07:57.537Z,101611.82
2018-06-29T01:10:25.725Z,101612.30
2018-06-29T01:12:53.921Z,101616.17
2018-06-29T01:15:22.117Z,101616.31
2018-06-29T01:17:50.289Z,101605.95
2018-06-29T01:20:18.502Z,101606.67
2018-06-29T01:22:46.670Z,101610.84
2018-06-29T01:25:14.843Z,101605.45
2018-06-29T01:27:43.019Z,101606.53
2018-06-29T01:30:11.347Z,101610.36
2018-06-29T01:32:39.629Z,101607.94
2018-06-29T01:35:07.929Z,101603.41
2018-06-29T01:37:36.178Z,101598.16
2018-06-29T01:40:04.610Z,101592.75
2018-06-29T01:42:32.775Z,101591.64
2018-06-29T01:45:00.925Z,101587.39
2018-06-29T01:47:29.742Z,101582.23
2018-06-29T01:49:57.928Z,101584.92
2018-06-29T01:52:26.156Z,101573.88
2018-06-29T01:54:54.633Z,101573.08
2018-06-29T01:57:22.824Z,101576.02
2018-06-29T01:59:51.049Z,101573.32
2018-06-29T02:02:19.364Z,101566.75
2018-06-29T02:04:47.682Z,101569.98
2018-06-29T02:07:15.913Z,101569.09
2018-06-29T02:09:44.131Z,101568.47
2018-06-29T02:12:12.688Z,101567.86
2018-06-29T02:14:41.584Z,101566.03
2018-06-29T02:17:09.784Z,101560.75
2018-06-29T02:19:38.126Z,101559.43
2018-06-29T02:22:06.350Z,101556.91
2018-06-29T02:24:34.590Z,101556.47
2018-06-29T02:27:02.953Z,101558.92
2018-06-29T02:29:31.144Z,101555.71
2018-06-29T02:31:59.387Z,101553.64
2018-06-29T02:34:27.643Z,101541.43
2018-06-29T02:36:55.869Z,101551.48
2018-06-29T02:39:24.177Z,101547.56
2018-06-29T02:41:52.393Z,101545.59
2018-06-29T02:44:20.763Z,101543.44
2018-06-29T02:46:48.968Z,101532.31
2018-06-29T02:49:17.184Z,101539.27
2018-06-29T02:51:45.461Z,101534.06
2018-06-29T02:54:13.774Z,101541.43
2018-06-29T02:56:42.018Z,101534.44
2018-06-29T02:59:10.250Z,101529.82
2018-06-29T03:01:38.402Z,101535.54
2018-06-29T03:04:07.497Z,101534.73
2018-06-29T03:06:35.825Z,101532.09
2018-06-29T03:09:05.741Z,101535.04
2018-06-29T03:11:33.952Z,101532.67
2018-06-29T03:14:02.140Z,101539.54
2018-06-29T03:16:30.283Z,101544.39
2018-06-29T03:18:58.452Z,101544.08
2018-06-29T03:21:26.656Z,101537.23
2018-06-29T03:23:54.831Z,101537.69
2018-06-29T03:26:23.021Z,101533.67
2018-06-29T03:28:51.209Z,101537.69
2018-06-29T03:31:19.393Z,101533.67
2018-06-29T03:33:47.609Z,101532.28
2018-06-29T03:36:15.954Z,101532.23
2018-06-29T03:38:44.129Z,101527.16
2018-06-29T03:41:12.348Z,101527.05
2018-06-29T03:43:40.508Z,101523.72
2018-06-29T03:46:08.802Z,101531.98
2018-06-29T03:48:36.977Z,101531.52
2018-06-29T03:51:05.236Z,101535.24
2018-06-29T03:53:33.485Z,101517.55
2018-06-29T03:56:01.709Z,101507.05
2018-06-29T03:58:30.011Z,101505.96
2018-06-29T04:00:58.202Z,101500.45
2018-06-29T04:03:26.397Z,101497.05
2018-06-29T04:05:54.629Z,101503.75
2018-06-29T04:08:22.884Z,101501.17
2018-06-29T04:10:51.159Z,101510.89
2018-06-29T04:13:19.330Z,101496.33
2018-06-29T04:15:47.622Z,101496.67
2018-06-29T04:18:15.941Z,101502.66
2018-06-29T04:20:44.165Z,101513.10
2018-06-29T04:23:12.394Z,101518.75
2018-06-29T04:25:40.662Z,101518.11
2018-06-29T04:28:08.927Z,101528.50
2018-06-29T04:30:37.110Z,101526.20
2018-06-29T04:33:05.441Z,101526.08
2018-06-29T04:35:33.784Z,101522.23
2018-06-29T04:38:02.055Z,101522.27
2018-06-29T04:40:30.268Z,101517.55
2018-06-29T04:42:58.565Z,101518.05
2018-06-29T04:45:26.630Z,101520.52
2018-06-29T04:47:54.797Z,101517.86
2018-06-29T04:50:23.068Z,101519.77
2018-06-29T04:52:51.423Z,101519.03
2018-06-29T04:55:19.681Z,101511.52
2018-06-29T04:57:47.978Z,101519.20
2018-06-29T05:00:16.515Z,101519.20
2018-06-29T05:02:44.713Z,101524.34
2018-06-29T05:05:12.896Z,101524.37
2018-06-29T05:07:41.118Z,101524.09
2018-06-29T05:10:09.392Z,101524.09
2018-06-29T05:12:37.697Z,101518.41
2018-06-29T05:15:05.908Z,101523.28
2018-06-29T05:17:34.081Z,101516.49
2018-06-29T05:20:02.279Z,101513.48
2018-06-29T05:22:30.425Z,101507.50
2018-06-29T05:24:58.646Z,101514.31
2018-06-29T05:27:26.881Z,101512.65
2018-06-29T05:29:55.282Z,101511.03
2018-06-29T05:32:23.479Z,101516.23
2018-06-29T05:34:51.881Z,101515.41
2018-06-29T05:37:20.098Z,101511.87
2018-06-29T05:39:48.703Z,101512.41
2018-06-29T05:42:17.369Z,101508.88
2018-06-29T05:44:45.807Z,101503.69
2018-06-29T05:47:13.953Z,101505.87
2018-06-29T05:49:42.156Z,101504.50
2018-06-29T05:52:10.329Z,101498.22
2018-06-29T05:54:38.608Z,101497.41
2018-06-29T05:57:06.834Z,101500.70
2018-06-29T05:59:35.049Z,101496.62
2018-06-29T06:02:03.369Z,101497.69
2018-06-29T06:04:31.616Z,101497.08
2018-06-29T06:06:59.898Z,101499.83
2018-06-29T06:09:28.198Z,101491.39
2018-06-29T06:11:56.392Z,101483.73
2018-06-29T06:14:24.603Z,101486.16
2018-06-29T06:16:52.795Z,101485.66
2018-06-29T06:19:32.281Z,101483.73
2018-06-29T06:22:00.525Z,101481.75
2018-06-29T06:24:28.741Z,101488.81
2018-06-29T06:26:57.015Z,101486.41
2018-06-29T06:29:25.932Z,101487.77
2018-06-29T06:31:55.534Z,101475.75
2018-06-29T06:34:23.864Z,101475.73
2018-06-29T06:36:52.021Z,101467.27
2018-06-29T06:39:20.194Z,101463.69
2018-06-29T06:41:48.396Z,101464.52
2018-06-29T06:44:16.600Z,101467.76
2018-06-29T06:46:44.866Z,101465.85
2018-06-29T06:49:13.783Z,101461.14
2018-06-29T06:51:42.034Z,101462.48
2018-06-29T06:54:10.217Z,101459.51
2018-06-29T06:56:38.479Z,101453.42
2018-06-29T06:59:06.672Z,101455.85
2018-06-29T07:01:34.868Z,101457.16
2018-06-29T07:04:03.236Z,101454.45
2018-06-29T07:06:31.558Z,101447.88
2018-06-29T07:08:59.776Z,101450.86
2018-06-29T07:11:27.999Z,101453.05
2018-06-29T07:13:56.200Z,101455.91
2018-06-29T07:16:24.397Z,101440.33
2018-06-29T07:18:52.553Z,101434.58
2018-06-29T07:21:20.960Z,101439.20
2018-06-29T07:23:49.116Z,101437.69
2018-06-29T07:26:17.293Z,101432.25
2018-06-29T07:28:45.612Z,101426.63
2018-06-29T07:31:13.917Z,101427.23
2018-06-29T07:33:42.184Z,101433.20
2018-06-29T07:36:10.380Z,101429.14
2018-06-29T07:38:38.657Z,101425.20
2018-06-29T07:41:06.946Z,101430.06
2018-06-29T07:43:35.186Z,101419.53
2018-06-29T07:46:03.426Z,101420.02
2018-06-29T07:48:31.708Z,101423.00
2018-06-29T07:50:59.881Z,101424.77
2018-06-29T07:53:28.168Z,101420.36
2018-06-29T07:55:56.297Z,101423.27
2018-06-29T07:58:24.580Z,101419.14
2018-06-29T08:00:56.098Z,101417.66
2018-06-29T08:03:28.554Z,101428.95
2018-06-29T08:05:56.735Z,101428.80
2018-06-29T08:08:25.247Z,101433.84
2018-06-29T08:10:53.565Z,101436.78
2018-06-29T08:13:21.793Z,101422.66
2018-06-29T08:15:50.192Z,101427.30
2018-06-29T08:18:18.345Z,101428.36
2018-06-29T08:20:46.514Z,101413.67
2018-06-29T08:23:14.768Z,101416.53
2018-06-29T08:25:43.052Z,101423.11
2018-06-29T08:28:11.403Z,101415.66
2018-06-29T08:30:39.655Z,101406.45
2018-06-29T08:33:07.946Z,101405.99
2018-06-29T08:35:36.195Z,101397.46
2018-06-29T08:38:04.352Z,101396.88
2018-06-29T08:40:32.553Z,101394.86
2018-06-29T08:43:00.723Z,101392.00
2018-06-29T08:45:28.955Z,101393.10
2018-06-29T08:47:57.190Z,101394.53
2018-06-29T08:50:25.454Z,101382.61
2018-06-29T08:52:53.900Z,101385.45
2018-06-29T08:55:22.126Z,101391.20
2018-06-29T08:57:50.319Z,101388.19
2018-06-29T09:00:18.491Z,101396.73
2018-06-29T09:02:46.710Z,101388.20
2018-06-29T09:05:14.975Z,101390.48
2018-06-29T09:07:43.277Z,101380.52
2018-06-29T09:10:11.455Z,101381.19
2018-06-29T09:12:39.742Z,101384.66
2018-06-29T09:15:07.988Z,101381.44
2018-06-29T09:17:36.191Z,101377.62
2018-06-29T09:20:04.420Z,101378.37
2018-06-29T09:22:32.701Z,101374.01
2018-06-29T09:25:00.898Z,101375.92
2018-06-29T09:27:29.252Z,101369.52
2018-06-29T09:29:57.556Z,101363.94
2018-06-29T09:32:25.889Z,101367.85
2018-06-29T09:34:54.079Z,101370.55
2018-06-29T09:37:22.313Z,101361.22
2018-06-29T09:39:50.480Z,101369.69
2018-06-29T09:42:18.692Z,101366.27
2018-06-29T09:44:46.914Z,101365.58
2018-06-29T09:47:15.093Z,101365.86
2018-06-29T09:49:43.456Z,101366.23
2018-06-29T09:52:11.681Z,101365.47
2018-06-29T09:54:39.955Z,101368.92
2018-06-29T09:57:08.174Z,101364.43
2018-06-29T09:59:36.370Z,101361.19
2018-06-29T10:02:04.679Z,101371.12
2018-06-29T10:04:32.953Z,101374.45
2018-06-29T10:07:01.153Z,101367.58
2018-06-29T10:09:29.423Z,101358.53
2018-06-29T10:11:57.632Z,101352.94
2018-06-29T10:14:25.960Z,101357.80
2018-06-29T10:16:54.201Z,101358.08
2018-06-29T10:19:22.400Z,101353.48
2018-06-29T10:21:50.605Z,101352.33
2018-06-29T10:24:18.988Z,101358.77
2018-06-29T10:26:47.117Z,101354.16
2018-06-29T10:29:15.479Z,101350.91
2018-06-29T10:31:43.954Z,101345.07
2018-06-29T10:34:12.160Z,101343.54
2018-06-29T10:36:40.331Z,101342.84
2018-06-29T10:39:11.373Z,101342.36
2018-06-29T10:41:39.795Z,101336.05
2018-06-29T10:44:08.000Z,101340.56
2018-06-29T10:46:36.234Z,101335.92
2018-06-29T10:49:04.549Z,101340.41
2018-06-29T10:51:32.740Z,101350.03
2018-06-29T10:54:00.964Z,101330.30
2018-06-29T10:56:29.166Z,101328.05
2018-06-29T10:58:57.385Z,101328.88
2018-06-29T11:01:25.655Z,101334.78
2018-06-29T11:03:53.889Z,101329.78
2018-06-29T11:06:22.119Z,101327.05
2018-06-29T11:08:50.302Z,101325.39
2018-06-29T11:11:18.489Z,101329.45
2018-06-29T11:13:46.731Z,101323.20
2018-06-29T11:16:15.011Z,101318.31
2018-06-29T11:18:43.287Z,101318.31
2018-06-29T11:21:11.516Z,101318.77
2018-06-29T11:23:40.170Z,101313.41
2018-06-29T11:26:08.356Z,101324.05
2018-06-29T11:28:36.516Z,101314.06
2018-06-29T11:31:04.712Z,101316.22
2018-06-29T11:33:32.900Z,101312.45
2018-06-29T11:36:01.073Z,101318.38
2018-06-29T11:38:29.260Z,101311.96
2018-06-29T11:40:57.526Z,101298.86
2018-06-29T11:43:25.894Z,101296.25
2018-06-29T11:45:54.109Z,101304.66
2018-06-29T11:48:22.304Z,101298.55
2018-06-29T11:50:50.523Z,101298.91
2018-06-29T11:53:18.734Z,101295.94
2018-06-29T11:55:46.977Z,101291.51
2018-06-29T11:58:15.204Z,101282.74
2018-06-29T12:00:43.657Z,101276.55
2018-06-29T12:03:11.810Z,101288.66
2018-06-29T12:05:40.126Z,101281.30
2018-06-29T12:08:08.467Z,101279.30
2018-06-29T12:10:36.496Z,101276.75
2018-06-29T12:13:04.696Z,101276.78
2018-06-29T12:15:32.933Z,101282.16
2018-06-29T12:18:01.132Z,101274.19
2018-06-29T12:20:29.558Z,101265.38
2018-06-29T12:22:57.807Z,101263.67
2018-06-29T12:25:26.088Z,101269.01
2018-06-29T12:27:54.379Z,101279.30
2018-06-29T12:30:22.549Z,101261.18
2018-06-29T12:32:50.874Z,101265.22
2018-06-29T12:35:19.017Z,101264.88
2018-06-29T12:37:47.279Z,101267.95
2018-06-29T12:40:15.545Z,101266.84
2018-06-29T12:42:43.805Z,101267.27
2018-06-29T12:45:12.016Z,101267.38
2018-06-29T12:47:40.286Z,101265.55
2018-06-29T12:50:08.457Z,101259.40
2018-06-29T12:52:36.672Z,101247.64
2018-06-29T12:55:11.722Z,101247.26
2018-06-29T12:57:39.958Z,101242.44
2018-06-29T13:00:08.221Z,101247.50
2018-06-29T13:02:36.402Z,101238.54
2018-06-29T13:05:04.752Z,101231.22
2018-06-29T13:07:32.936Z,101229.31
2018-06-29T13:10:01.174Z,101229.70
2018-06-29T13:12:29.514Z,101224.61
2018-06-29T13:14:57.749Z,101222.58
2018-06-29T13:17:26.092Z,101237.72
2018-06-29T13:19:54.408Z,101227.81
2018-06-29T13:22:22.703Z,101219.55
2018-06-29T13:24:51.086Z,101220.14
2018-06-29T13:27:19.324Z,101229.22
2018-06-29T13:29:47.652Z,101220.75
2018-06-29T13:32:15.926Z,101224.97
2018-06-29T13:34:44.241Z,101217.80
2018-06-29T13:37:12.548Z,101218.36
2018-06-29T13:39:40.854Z,101220.83
2018-06-29T13:42:09.606Z,101227.80
2018-06-29T13:44:37.891Z,101223.54
2018-06-29T13:47:06.227Z,101226.86
2018-06-29T13:49:34.504Z,101217.52
2018-06-29T13:52:02.964Z,101218.42
2018-06-29T13:54:31.295Z,101217.84
2018-06-29T13:56:59.644Z,101209.91
2018-06-29T13:59:27.993Z,101209.69
2018-06-29T14:01:56.313Z,101219.75
2018-06-29T14:04:24.625Z,101210.52
2018-06-29T14:06:52.927Z,101216.92
2018-06-29T14:09:21.277Z,101215.45
2018-06-29T14:11:49.539Z,101216.87
2018-06-29T14:14:17.807Z,101219.17
2018-06-29T14:16:46.083Z,101215.22
2018-06-29T14:19:14.412Z,101231.44
2018-06-29T14:21:42.735Z,101218.12
2018-06-29T14:24:11.719Z,101225.19
2018-06-29T14:26:40.019Z,101225.45
2018-06-29T14:29:08.297Z,101221.64
2018-06-29T14:31:36.577Z,101222.98
2018-06-29T14:34:04.924Z,101230.89
2018-06-29T14:36:33.304Z,101228.30
2018-06-29T14:39:01.648Z,101233.67
2018-06-29T14:41:29.955Z,101230.25
2018-06-29T14:43:58.537Z,101217.60
2018-06-29T14:46:26.897Z,101211.11
2018-06-29T14:48:55.181Z,101220.78
2018-06-29T14:51:23.485Z,101218.66
2018-06-29T14:53:51.759Z,101220.33
2018-06-29T14:56:19.983Z,101228.97
2018-06-29T14:58:48.587Z,101225.14
2018-06-29T15:01:16.845Z,101216.84
2018-06-29T15:03:45.169Z,101218.45
2018-06-29T15:06:13.571Z,101207.09
2018-06-29T15:08:41.884Z,101213.34
2018-06-29T15:11:10.165Z,101210.15
2018-06-29T15:13:38.470Z,101213.98
2018-06-29T15:16:06.823Z,101209.58
2018-06-29T15:18:35.139Z,101208.35
2018-06-29T15:21:03.433Z,101202.94
2018-06-29T15:23:31.685Z,101208.64
2018-06-29T15:26:00.613Z,101218.36
2018-06-29T15:28:28.916Z,101208.03
2018-06-29T15:30:57.253Z,101210.67
2018-06-29T15:33:25.633Z,101211.78
2018-06-29T15:35:53.985Z,101211.11
2018-06-29T15:38:22.297Z,101209.77
2018-06-29T15:40:50.583Z,101207.58
2018-06-29T15:43:18.920Z,101204.88
2018-06-29T15:45:47.196Z,101206.25
2018-06-29T15:48:15.496Z,101210.23
2018-06-29T15:50:43.821Z,101197.84
2018-06-29T15:53:12.183Z,101198.02
2018-06-29T15:55:40.549Z,101201.96
2018-06-29T15:58:08.843Z,101203.77
2018-06-29T16:00:37.162Z,101210.04
2018-06-29T16:03:05.856Z,101212.47
2018-06-29T16:05:34.137Z,101211.91
2018-06-29T16:08:02.435Z,101213.19
2018-06-29T16:10:30.941Z,101210.67
2018-06-29T16:12:59.405Z,101213.61
2018-06-29T16:15:27.710Z,101219.49
2018-06-29T16:17:56.042Z,101219.03
2018-06-29T16:20:24.325Z,101211.91
2018-06-29T16:22:52.616Z,101206.97
2018-06-29T16:25:20.888Z,101206.59
2018-06-29T16:27:49.357Z,101210.03
2018-06-29T16:30:17.668Z,101207.09
2018-06-29T16:32:46.114Z,101201.21
2018-06-29T16:35:14.453Z,101206.60
2018-06-29T16:37:42.774Z,101207.96
2018-06-29T16:40:11.093Z,101204.55
2018-06-29T16:42:39.402Z,101198.90
2018-06-29T16:45:07.939Z,101199.73
2018-06-29T16:47:36.285Z,101200.88
2018-06-29T16:50:04.895Z,101208.76
2018-06-29T16:52:33.185Z,101199.83
2018-06-29T16:55:01.611Z,101202.80
2018-06-29T16:57:29.921Z,101211.09
2018-06-29T16:59:58.236Z,101204.25
2018-06-29T17:02:26.504Z,101205.10
2018-06-29T17:04:54.774Z,101213.86
2018-06-29T17:07:23.204Z,101204.52
2018-06-29T17:09:51.569Z,101215.34
2018-06-29T17:12:19.937Z,101204.20
2018-06-29T17:14:48.238Z,101217.14
2018-06-29T17:17:16.598Z,101212.95
2018-06-29T17:19:44.978Z,101204.11
2018-06-29T17:22:13.300Z,101224.67
2018-06-29T17:24:41.629Z,101220.14
2018-06-29T17:27:10.184Z,101214.18
2018-06-29T17:29:38.405Z,101224.63
2018-06-29T17:32:06.796Z,101225.91
2018-06-29T17:34:35.134Z,101224.64
2018-06-29T17:37:03.548Z,101230.75
2018-06-29T17:39:31.972Z,101227.90
2018-06-29T17:42:00.303Z,101226.94
2018-06-29T17:44:28.589Z,101234.14
2018-06-29T17:46:57.143Z,101232.44
2018-06-29T17:49:25.437Z,101235.61
2018-06-29T17:51:53.714Z,101232.88
2018-06-29T17:54:22.141Z,101227.69
2018-06-29T17:56:50.469Z,101231.38
2018-06-29T17:59:18.809Z,101236.08
2018-06-29T18:01:47.119Z,101232.84
2018-06-29T18:04:15.477Z,101233.75
2018-06-29T18:06:43.761Z,101238.73
2018-06-29T18:09:12.679Z,101236.31
2018-06-29T18:11:41.116Z,101240.77
2018-06-29T18:14:09.422Z,101239.55
2018-06-29T18:16:37.733Z,101240.45
2018-06-29T18:19:06.137Z,101235.20
2018-06-29T18:21:34.429Z,101242.63
2018-06-29T18:24:02.753Z,101240.05
2018-06-29T18:26:31.116Z,101239.95
2018-06-29T18:28:59.603Z,101240.69
2018-06-29T18:31:27.894Z,101240.92
2018-06-29T18:33:56.194Z,101244.34
2018-06-29T18:36:24.468Z,101249.05
2018-06-29T18:38:53.332Z,101256.33
2018-06-29T18:41:21.901Z,101249.83
2018-06-29T18:43:51.196Z,101254.36
2018-06-29T18:46:19.540Z,101253.78
2018-06-29T18:48:47.824Z,101251.75
2018-06-29T18:51:16.136Z,101258.77
2018-06-29T18:53:44.391Z,101255.41
2018-06-29T18:56:12.727Z,101258.31
2018-06-29T18:58:41.159Z,101265.02
2018-06-29T19:01:09.527Z,101274.52
2018-06-29T19:03:37.917Z,101268.80
2018-06-29T19:06:06.235Z,101274.89
2018-06-29T19:08:34.536Z,101278.11
2018-06-29T19:11:02.855Z,101279.70
2018-06-29T19:13:31.732Z,101276.53
2018-06-29T19:16:00.128Z,101291.84
2018-06-29T19:18:28.442Z,101289.86
2018-06-29T19:20:56.802Z,101290.08
2018-06-29T19:23:25.184Z,101296.38
2018-06-29T19:25:53.524Z,101296.94
2018-06-29T19:28:21.876Z,101299.73
2018-06-29T19:30:50.180Z,101300.08
2018-06-29T19:33:18.521Z,101309.49
2018-06-29T19:35:47.196Z,101301.50
2018-06-29T19:38:17.648Z,101303.67
2018-06-29T19:40:46.309Z,101304.70
2018-06-29T19:43:14.586Z,101306.91
2018-06-29T19:45:43.025Z,101311.30
2018-06-29T19:48:11.391Z,101311.87
2018-06-29T19:50:39.823Z,101320.62
2018-06-29T19:53:08.511Z,101324.73
2018-06-29T19:55:36.924Z,101325.28
2018-06-29T19:58:05.509Z,101331.64
2018-06-29T20:00:33.824Z,101337.02
2018-06-29T20:03:02.113Z,101331.36
2018-06-29T20:05:31.044Z,101333.16
2018-06-29T20:07:59.467Z,101332.05
2018-06-29T20:10:27.811Z,101337.39
2018-06-29T20:12:56.090Z,101331.17
2018-06-29T20:15:24.379Z,101330.88
2018-06-29T20:17:53.427Z,101340.75
2018-06-29T20:20:21.794Z,101339.02
2018-06-29T20:22:50.050Z,101343.69
2018-06-29T20:25:18.365Z,101345.32
2018-06-29T20:27:46.650Z,101340.95
2018-06-29T20:30:15.053Z,101348.13
2018-06-29T20:32:43.586Z,101352.44
2018-06-29T20:35:11.963Z,101358.48
2018-06-29T20:37:40.401Z,101360.13
2018-06-29T20:40:08.717Z,101358.95
2018-06-29T20:42:37.002Z,101360.31
2018-06-29T20:45:05.369Z,101363.79
2018-06-29T20:47:33.818Z,101365.32
2018-06-29T20:50:02.138Z,101374.88
2018-06-29T20:52:30.433Z,101378.71
2018-06-29T20:54:58.912Z,101378.89
2018-06-29T20:57:27.174Z,101380.84
2018-06-29T20:59:55.590Z,101386.55
2018-06-29T21:02:23.864Z,101385.22
2018-06-29T21:04:52.223Z,101385.30
2018-06-29T21:07:20.578Z,101388.95
2018-06-29T21:09:48.960Z,101393.37
2018-06-29T21:12:17.285Z,101400.02
2018-06-29T21:14:45.570Z,101396.82
2018-06-29T21:17:14.047Z,101406.91
2018-06-29T21:19:42.324Z,101402.67
2018-06-29T21:22:10.621Z,101405.09
2018-06-29T21:24:38.953Z,101400.86
2018-06-29T21:27:07.673Z,101403.40
2018-06-29T21:29:35.963Z,101402.67
2018-06-29T21:32:04.364Z,101408.16
2018-06-29T21:34:32.718Z,101411.94
2018-06-29T21:37:01.073Z,101414.80
2018-06-29T21:39:29.455Z,101410.69
2018-06-29T21:41:57.776Z,101412.42
2018-06-29T21:44:26.124Z,101419.59
2018-06-29T21:46:54.423Z,101421.16
2018-06-29T21:49:22.722Z,101418.41
2018-06-29T21:51:51.612Z,101419.22
2018-06-29T21:54:20.046Z,101418.39
2018-06-29T21:56:48.315Z,101419.76
2018-06-29T21:59:16.579Z,101419.41
2018-06-29T22:01:45.044Z,101424.51
2018-06-29T22:04:13.376Z,101430.52
2018-06-29T22:06:41.666Z,101429.52
2018-06-29T22:09:10.358Z,101425.77
2018-06-29T22:11:38.684Z,101429.27
2018-06-29T22:14:07.281Z,101442.69
2018-06-29T22:16:35.638Z,101442.09
2018-06-29T22:19:03.986Z,101445.31
2018-06-29T22:21:32.386Z,101447.70
2018-06-29T22:24:00.698Z,101444.75
2018-06-29T22:26:29.003Z,101450.85
2018-06-29T22:28:57.276Z,101457.98
2018-06-29T22:31:25.627Z,101459.84
2018-06-29T22:33:53.887Z,101461.07
2018-06-29T22:36:22.204Z,101466.98
2018-06-29T22:38:50.460Z,101461.98
2018-06-29T22:41:18.972Z,101468.31
2018-06-29T22:43:48.457Z,101463.75
2018-06-29T22:46:16.787Z,101459.19
2018-06-29T22:48:45.219Z,101468.81
2018-06-29T22:51:13.496Z,101466.40
2018-06-29T22:53:41.977Z,101468.41
2018-06-29T22:56:10.724Z,101469.99
2018-06-29T22:58:39.255Z,101466.41
2018-06-29T23:01:07.636Z,101469.88
2018-06-29T23:03:41.117Z,101464.66
2018-06-29T23:06:10.289Z,101470.11
2018-06-29T23:08:38.585Z,101474.84
2018-06-29T23:11:06.983Z,101475.50
2018-06-29T23:13:35.495Z,101476.70
2018-06-29T23:16:03.875Z,101476.90
2018-06-29T23:18:32.185Z,101480.44
2018-06-29T23:21:00.491Z,101484.56
2018-06-29T23:23:28.778Z,101485.38
2018-06-29T23:25:57.188Z,101495.92
2018-06-29T23:28:25.640Z,101489.30
2018-06-29T23:30:53.929Z,101485.77
2018-06-29T23:33:22.193Z,101493.50
2018-06-29T23:35:50.630Z,101488.08
2018-06-29T23:38:18.986Z,101489.52
2018-06-29T23:40:47.346Z,101494.96
2018-06-29T23:43:15.654Z,101496.31
2018-06-29T23:45:43.970Z,101495.97
2018-06-29T23:48:12.734Z,101491.43
2018-06-29T23:50:41.114Z,101491.69
2018-06-29T23:53:09.482Z,101490.27
2018-06-29T23:55:37.791Z,101493.06
2018-06-29T23:58:06.171Z,101500.43
